sensor_id;sensor_type;location;lat;lon;timestamp;pressure;altitude;pressure_sealevel;temperature;humidity
32243;BME280;18731;42.830;24.390;2023-05-16T03:32:51;94017.66;;;15.99;71.75
32243;BME280;18731;42.830;24.390;2023-05-16T03:48:16;93783.19;;;14.51;73.90
32243;BME280;18731;42.830;24.390;2023-05-16T03:55:52;93897.47;;;15.22;74.91
32243;BME280;18731;42.830;24.390;2023-05-16T03:58:20;93824.06;;;14.70;73.62
32243;BME280;18731;42.830;24.390;2023-05-16T08:14:33;93882.88;;;20.27;46.53
32243;BME280;18731;42.830;24.390;2023-05-16T09:16:29;93914.53;;;22.09;42.95
32243;BME280;18731;42.830;24.390;2023-05-16T09:19:03;93902.22;;;21.77;44.35
32243;BME280;18731;42.830;24.390;2023-05-16T10:45:18;93825.41;;;21.77;43.95
32243;BME280;18731;42.830;24.390;2023-05-16T11:36:23;93839.56;;;23.59;40.27
32243;BME280;18731;42.830;24.390;2023-05-16T11:57:00;93933.81;;;23.89;41.27
32243;BME280;18731;42.830;24.390;2023-05-16T11:59:27;93810.28;;;22.39;42.14
32243;BME280;18731;42.830;24.390;2023-05-16T12:35:53;93931.69;;;23.97;42.88
32243;BME280;18731;42.830;24.390;2023-05-16T12:43:41;93834.44;;;22.73;42.48
32243;BME280;18731;42.830;24.390;2023-05-16T12:46:09;93845.41;;;22.69;43.76
32243;BME280;18731;42.830;24.390;2023-05-16T12:48:39;93813.56;;;22.30;44.67
32243;BME280;18731;42.830;24.390;2023-05-16T12:51:10;93877.97;;;22.33;45.30
32243;BME280;18731;42.830;24.390;2023-05-16T12:53:47;93820.81;;;22.17;44.69
32243;BME280;18731;42.830;24.390;2023-05-16T12:56:17;93851.06;;;22.19;44.94
32243;BME280;18731;42.830;24.390;2023-05-16T13:07:19;93900.00;;;22.59;44.67
32243;BME280;18731;42.830;24.390;2023-05-16T13:09:45;93889.28;;;22.52;45.42
32243;BME280;18731;42.830;24.390;2023-05-16T13:40:38;93804.72;;;22.26;44.07
32243;BME280;18731;42.830;24.390;2023-05-16T13:43:04;93771.97;;;22.13;44.74
32243;BME280;18731;42.830;24.390;2023-05-16T13:58:54;93806.84;;;23.43;43.44
32243;BME280;18731;42.830;24.390;2023-05-16T14:22:04;93792.00;;;22.00;45.03
32243;BME280;18731;42.830;24.390;2023-05-16T14:24:30;93837.59;;;22.32;45.35
32243;BME280;18731;42.830;24.390;2023-05-16T14:37:42;93773.03;;;21.06;46.99
32243;BME280;18731;42.830;24.390;2023-05-16T14:43:08;93876.28;;;21.73;47.34
32243;BME280;18731;42.830;24.390;2023-05-16T14:45:35;93792.59;;;20.94;48.11
32243;BME280;18731;42.830;24.390;2023-05-16T14:50:40;93797.69;;;20.89;47.91
32243;BME280;18731;42.830;24.390;2023-05-16T14:53:06;93765.94;;;20.59;47.83
32243;BME280;18731;42.830;24.390;2023-05-16T14:55:35;93832.97;;;20.89;47.91
32243;BME280;18731;42.830;24.390;2023-05-16T15:08:59;93849.06;;;20.38;50.24
32243;BME280;18731;42.830;24.390;2023-05-16T15:11:27;93950.19;;;21.03;50.52
32243;BME280;18731;42.830;24.390;2023-05-16T15:13:55;93815.38;;;20.05;50.06
32243;BME280;18731;42.830;24.390;2023-05-16T15:16:22;93794.69;;;19.84;50.63
32243;BME280;18731;42.830;24.390;2023-05-16T15:29:08;93809.78;;;19.41;52.87
32243;BME280;18731;42.830;24.390;2023-05-16T15:34:14;93796.34;;;19.30;55.12
32243;BME280;18731;42.830;24.390;2023-05-16T15:36:40;93775.72;;;19.02;56.90
32243;BME280;18731;42.830;24.390;2023-05-16T15:39:06;93792.31;;;19.04;57.24
32243;BME280;18731;42.830;24.390;2023-05-16T15:41:33;93897.72;;;19.70;57.65
32243;BME280;18731;42.830;24.390;2023-05-16T15:49:42;93961.63;;;20.09;56.90
32243;BME280;18731;42.830;24.390;2023-05-16T15:52:08;93852.72;;;19.39;57.07
32243;BME280;18731;42.830;24.390;2023-05-16T15:54:36;93962.38;;;20.09;58.11
32243;BME280;18731;42.830;24.390;2023-05-16T15:57:03;93950.78;;;20.09;58.17
32243;BME280;18731;42.830;24.390;2023-05-16T15:59:31;93853.09;;;19.41;57.37
32243;BME280;18731;42.830;24.390;2023-05-16T16:01:57;93778.56;;;18.81;58.23
32243;BME280;18731;42.830;24.390;2023-05-16T16:04:24;93951.28;;;19.97;59.10
32243;BME280;18731;42.830;24.390;2023-05-16T16:06:50;93833.94;;;19.17;59.15
32243;BME280;18731;42.830;24.390;2023-05-16T16:09:20;93807.09;;;18.89;58.84
32243;BME280;18731;42.830;24.390;2023-05-16T16:11:45;93879.50;;;19.22;59.13
32243;BME280;18731;42.830;24.390;2023-05-16T16:14:14;93808.25;;;18.88;58.10
32243;BME280;18731;42.830;24.390;2023-05-16T16:16:40;93807.56;;;18.77;60.25
32243;BME280;18731;42.830;24.390;2023-05-16T16:19:06;93841.84;;;18.90;57.93
32243;BME280;18731;42.830;24.390;2023-05-16T16:21:35;93881.50;;;19.15;58.53
32243;BME280;18731;42.830;24.390;2023-05-16T16:24:04;93808.81;;;18.61;58.27
32243;BME280;18731;42.830;24.390;2023-05-16T16:26:34;93886.97;;;19.04;58.11
32243;BME280;18731;42.830;24.390;2023-05-16T16:29:05;93827.28;;;18.70;60.29
32243;BME280;18731;42.830;24.390;2023-05-16T16:31:35;94004.47;;;19.69;60.79
32243;BME280;18731;42.830;24.390;2023-05-16T16:34:01;93985.63;;;19.55;60.85
32243;BME280;18731;42.830;24.390;2023-05-16T16:36:30;93886.31;;;18.82;61.20
32243;BME280;18731;42.830;24.390;2023-05-16T16:39:05;93977.91;;;19.50;62.74
32243;BME280;18731;42.830;24.390;2023-05-16T16:41:34;93922.84;;;19.15;63.12
32243;BME280;18731;42.830;24.390;2023-05-16T16:44:03;93916.34;;;18.99;61.93
32243;BME280;18731;42.830;24.390;2023-05-16T16:46:30;93835.09;;;18.50;62.15
32243;BME280;18731;42.830;24.390;2023-05-16T16:48:56;93840.47;;;18.54;62.04
32243;BME280;18731;42.830;24.390;2023-05-16T16:51:28;93944.44;;;19.22;62.63
32243;BME280;18731;42.830;24.390;2023-05-16T16:53:58;93821.28;;;18.34;61.87
32243;BME280;18731;42.830;24.390;2023-05-16T16:56:25;93934.84;;;19.11;63.80
32243;BME280;18731;42.830;24.390;2023-05-16T16:58:53;93942.28;;;18.92;65.73
32243;BME280;18731;42.830;24.390;2023-05-16T17:01:22;93814.41;;;18.05;64.81
32243;BME280;18731;42.830;24.390;2023-05-16T17:03:48;93766.66;;;17.80;65.41
32243;BME280;18731;42.830;24.390;2023-05-16T17:06:18;93939.97;;;18.87;64.16
32243;BME280;18731;42.830;24.390;2023-05-16T17:08:49;93832.13;;;18.13;64.08
32243;BME280;18731;42.830;24.390;2023-05-16T17:11:18;93933.47;;;18.74;66.83
32243;BME280;18731;42.830;24.390;2023-05-16T17:16:26;93780.22;;;17.38;69.33
32243;BME280;18731;42.830;24.390;2023-05-16T17:18:56;93875.38;;;17.91;68.64
32243;BME280;18731;42.830;24.390;2023-05-16T17:21:22;93764.06;;;17.23;67.11
32243;BME280;18731;42.830;24.390;2023-05-16T17:23:59;93815.28;;;17.52;67.89
32243;BME280;18731;42.830;24.390;2023-05-16T17:26:25;93841.88;;;17.67;68.21
32243;BME280;18731;42.830;24.390;2023-05-16T17:28:53;93765.22;;;17.22;67.44
32243;BME280;18731;42.830;24.390;2023-05-16T17:31:24;93757.53;;;17.17;66.92
32243;BME280;18731;42.830;24.390;2023-05-16T17:33:50;93939.72;;;18.43;66.06
32243;BME280;18731;42.830;24.390;2023-05-16T17:36:19;93746.75;;;17.17;66.79
32243;BME280;18731;42.830;24.390;2023-05-16T17:38:48;93834.16;;;17.77;67.06
32243;BME280;18731;42.830;24.390;2023-05-16T17:41:14;93786.78;;;17.29;67.95
32243;BME280;18731;42.830;24.390;2023-05-16T17:43:41;93949.00;;;18.42;68.21
32243;BME280;18731;42.830;24.390;2023-05-16T17:46:07;93868.44;;;17.90;67.98
32243;BME280;18731;42.830;24.390;2023-05-16T17:48:33;93839.94;;;17.75;68.34
32243;BME280;18731;42.830;24.390;2023-05-16T17:51:00;93892.38;;;17.88;68.43
32243;BME280;18731;42.830;24.390;2023-05-16T17:53:26;93779.88;;;17.14;67.77
32243;BME280;18731;42.830;24.390;2023-05-16T17:55:54;93809.13;;;17.41;68.35
32243;BME280;18731;42.830;24.390;2023-05-16T17:58:20;93795.28;;;17.24;68.83
32243;BME280;18731;42.830;24.390;2023-05-16T18:00:46;93860.00;;;17.67;68.82
32243;BME280;18731;42.830;24.390;2023-05-16T18:03:15;93740.59;;;16.85;69.63
32243;BME280;18731;42.830;24.390;2023-05-16T18:05:44;93860.75;;;17.57;69.28
32243;BME280;18731;42.830;24.390;2023-05-16T18:08:14;93856.91;;;17.65;69.13
32243;BME280;18731;42.830;24.390;2023-05-16T18:10:40;93826.47;;;17.43;68.98
32243;BME280;18731;42.830;24.390;2023-05-16T18:13:06;93903.94;;;17.89;68.90
32243;BME280;18731;42.830;24.390;2023-05-16T18:15:36;93794.50;;;17.06;70.31
32243;BME280;18731;42.830;24.390;2023-05-16T18:18:02;93857.69;;;17.51;71.39
32243;BME280;18731;42.830;24.390;2023-05-16T18:20:31;93966.41;;;18.30;71.94
32243;BME280;18731;42.830;24.390;2023-05-16T18:22:59;93797.19;;;16.99;72.65
32243;BME280;18731;42.830;24.390;2023-05-16T18:25:25;93789.09;;;16.74;72.71
32243;BME280;18731;42.830;24.390;2023-05-16T18:27:53;93967.94;;;17.92;73.70
32243;BME280;18731;42.830;24.390;2023-05-16T18:30:22;93827.22;;;16.80;74.33
32243;BME280;18731;42.830;24.390;2023-05-16T18:32:51;93954.00;;;17.29;75.02
32243;BME280;18731;42.830;24.390;2023-05-16T18:35:17;93994.91;;;17.56;75.58
32243;BME280;18731;42.830;24.390;2023-05-16T18:37:43;93866.84;;;16.68;75.65
32243;BME280;18731;42.830;24.390;2023-05-16T18:40:13;93991.03;;;17.54;76.39
32243;BME280;18731;42.830;24.390;2023-05-16T18:45:14;93886.09;;;16.67;76.48
32243;BME280;18731;42.830;24.390;2023-05-16T18:47:41;93837.44;;;16.28;77.22
32243;BME280;18731;42.830;24.390;2023-05-16T18:50:07;93831.28;;;16.24;77.86
32243;BME280;18731;42.830;24.390;2023-05-16T18:55:11;93826.66;;;16.21;78.84
32243;BME280;18731;42.830;24.390;2023-05-16T18:57:40;93802.00;;;16.08;78.66
32243;BME280;18731;42.830;24.390;2023-05-16T19:00:07;93990.63;;;17.38;77.25
32243;BME280;18731;42.830;24.390;2023-05-16T19:02:33;93867.94;;;16.60;77.59
32243;BME280;18731;42.830;24.390;2023-05-16T19:04:59;93872.56;;;16.63;79.84
32243;BME280;18731;42.830;24.390;2023-05-16T19:07:28;93863.69;;;16.56;79.12
32243;BME280;18731;42.830;24.390;2023-05-16T19:09:55;93805.84;;;16.11;79.06
32243;BME280;18731;42.830;24.390;2023-05-16T19:12:24;93832.09;;;16.38;79.52
32243;BME280;18731;42.830;24.390;2023-05-16T19:14:52;93986.00;;;17.34;80.18
32243;BME280;18731;42.830;24.390;2023-05-16T19:17:21;93896.88;;;16.70;79.81
32243;BME280;18731;42.830;24.390;2023-05-16T19:19:50;94005.69;;;17.46;80.27
32243;BME280;18731;42.830;24.390;2023-05-16T19:22:17;93847.91;;;16.47;79.74
32243;BME280;18731;42.830;24.390;2023-05-16T19:24:43;93835.91;;;16.30;79.75
32243;BME280;18731;42.830;24.390;2023-05-16T19:27:12;93829.69;;;16.12;80.28
32243;BME280;18731;42.830;24.390;2023-05-16T19:29:42;93824.28;;;16.08;81.22
32243;BME280;18731;42.830;24.390;2023-05-16T19:32:13;93820.03;;;16.04;81.29
32243;BME280;18731;42.830;24.390;2023-05-16T19:34:40;93989.47;;;17.31;81.68
32243;BME280;18731;42.830;24.390;2023-05-16T19:37:06;93943.56;;;17.07;81.46
32243;BME280;18731;42.830;24.390;2023-05-16T19:39:38;93850.56;;;16.40;82.06
32243;BME280;18731;42.830;24.390;2023-05-16T19:42:10;93784.97;;;15.86;83.04
32243;BME280;18731;42.830;24.390;2023-05-16T19:44:45;93791.84;;;15.73;83.29
32243;BME280;18731;42.830;24.390;2023-05-16T19:47:14;93943.84;;;16.73;84.01
32243;BME280;18731;42.830;24.390;2023-05-16T19:49:43;93900.97;;;16.39;84.96
32243;BME280;18731;42.830;24.390;2023-05-16T19:52:15;93968.88;;;16.77;86.85
32243;BME280;18731;42.830;24.390;2023-05-16T19:54:47;93926.41;;;16.49;86.86
32243;BME280;18731;42.830;24.390;2023-05-16T19:57:24;93944.53;;;16.59;86.81
32243;BME280;18731;42.830;24.390;2023-05-16T19:59:56;93832.66;;;15.86;86.89
32243;BME280;18731;42.830;24.390;2023-05-16T20:02:31;93865.06;;;16.11;86.70
32243;BME280;18731;42.830;24.390;2023-05-16T20:05:01;93854.25;;;16.03;87.04
32243;BME280;18731;42.830;24.390;2023-05-16T20:07:33;93949.97;;;16.66;86.85
32243;BME280;18731;42.830;24.390;2023-05-16T20:10:02;93933.00;;;16.59;87.39
32243;BME280;18731;42.830;24.390;2023-05-16T20:12:37;93851.22;;;16.08;87.65
32243;BME280;18731;42.830;24.390;2023-05-16T20:15:04;93784.03;;;15.57;87.11
32243;BME280;18731;42.830;24.390;2023-05-16T20:17:41;93746.56;;;15.27;86.45
32243;BME280;18731;42.830;24.390;2023-05-16T20:20:07;93932.16;;;16.48;88.15
32243;BME280;18731;42.830;24.390;2023-05-16T20:22:34;93932.91;;;16.41;88.47
32243;BME280;18731;42.830;24.390;2023-05-16T20:25:08;93736.81;;;15.05;88.59
32243;BME280;18731;42.830;24.390;2023-05-16T20:27:42;93712.19;;;14.96;88.40
32243;BME280;18731;42.830;24.390;2023-05-16T20:30:13;93850.31;;;15.83;88.23
32243;BME280;18731;42.830;24.390;2023-05-16T20:32:47;93794.72;;;15.50;87.65
32243;BME280;18731;42.830;24.390;2023-05-16T20:35:14;93832.94;;;15.70;86.83
32243;BME280;18731;42.830;24.390;2023-05-16T20:37:40;93881.00;;;15.75;88.36
32243;BME280;18731;42.830;24.390;2023-05-16T20:40:12;93772.94;;;15.07;87.53
32243;BME280;18731;42.830;24.390;2023-05-16T20:42:41;93928.22;;;16.24;87.05
32243;BME280;18731;42.830;24.390;2023-05-16T20:45:08;93823.13;;;15.48;87.04
32243;BME280;18731;42.830;24.390;2023-05-16T20:47:34;93737.78;;;14.79;87.67
32243;BME280;18731;42.830;24.390;2023-05-16T20:50:03;93834.50;;;15.27;87.54
32243;BME280;18731;42.830;24.390;2023-05-16T20:52:32;93768.81;;;14.73;87.85
32243;BME280;18731;42.830;24.390;2023-05-16T20:55:01;93880.81;;;15.54;87.46
32243;BME280;18731;42.830;24.390;2023-05-16T20:57:29;93896.53;;;15.52;87.87
32243;BME280;18731;42.830;24.390;2023-05-16T21:00:01;93781.03;;;14.63;87.32
32243;BME280;18731;42.830;24.390;2023-05-16T21:02:27;93952.19;;;15.85;86.07
32243;BME280;18731;42.830;24.390;2023-05-16T21:04:56;93790.38;;;14.80;86.86
32243;BME280;18731;42.830;24.390;2023-05-16T21:07:28;93763.22;;;14.48;84.83
32243;BME280;18731;42.830;24.390;2023-05-16T21:09:59;93833.53;;;15.01;86.84
32243;BME280;18731;42.830;24.390;2023-05-16T21:12:34;93885.34;;;15.42;87.39
32243;BME280;18731;42.830;24.390;2023-05-16T21:15:02;93821.38;;;14.70;87.04
32243;BME280;18731;42.830;24.390;2023-05-16T21:17:28;93812.63;;;14.80;85.51
32243;BME280;18731;42.830;24.390;2023-05-16T21:19:57;93855.34;;;14.93;85.43
32243;BME280;18731;42.830;24.390;2023-05-16T21:22:29;93778.28;;;14.56;85.67
32243;BME280;18731;42.830;24.390;2023-05-16T21:24:55;93785.69;;;14.70;84.59
32243;BME280;18731;42.830;24.390;2023-05-16T21:27:30;93933.13;;;15.60;84.27
